Date,TemperatureHighF,TemperatureAvgF,TemperatureLowF,DewpointHighF,DewpointAvgF,DewpointLowF,HumidityHigh,HumidityAvg,HumidityLow,PressureMaxIn,PressureMinIn,WindSpeedMaxMPH,WindSpeedAvgMPH,GustSpeedMaxMPH,PrecipitationSumIn
2013-1-1,34,33,32,31,29,27,90,86,80,30.43,30.36,6,2,11,0.00
2013-1-2,41,35,32,28,27,26,80,72,58,30.36,30.20,13,5,16,0.01
2013-1-3,40,34,30,30,26,23,90,74,59,30.20,30.08,8,3,15,0.09
2013-1-4,37,35,33,36,34,31,97,96,91,30.30,30.13,7,2,11,0.16
2013-1-5,42,38,36,39,36,34,95,92,84,30.18,30.05,17,5,19,0.20
2013-1-6,43,41,38,40,39,37,96,92,87,30.12,29.95,17,9,20,0.56
2013-1-7,50,42,37,46,40,36,98,94,85,30.10,29.77,21,6,23,0.70
2013-1-8,49,41,37,47,40,36,98,94,87,30.12,29.61,19,6,30,1.66
2013-1-9,47,42,37,45,38,32,92,85,75,29.89,29.62,18,7,24,0.05
2013-1-10,38,35,30,35,32,26,96,91,80,30.11,29.89,12,3,14,0.22
2013-1-11,36,31,25,23,20,16,83,65,50,30.32,30.23,12,2,15,0.00
2013-1-12,34,27,23,22,19,17,82,73,61,30.44,30.32,6,2,14,0.00
2013-1-13,32,27,21,24,21,17,84,78,72,30.48,30.43,6,1,11,0.00
2013-1-14,31,30,28,29,27,23,95,88,79,30.57,30.46,6,2,6,0.00
2013-1-15,38,34,31,32,30,29,91,86,78,30.70,30.57,6,1,7,0.01
2013-1-16,39,33,30,32,30,28,92,85,75,30.68,30.52,4,1,8,0.00
2013-1-17,43,35,30,36,31,28,94,87,73,30.53,30.27,3,1,6,0.00
2013-1-18,35,31,27,35,30,26,97,97,94,30.34,30.25,5,1,6,0.00
2013-1-19,35,32,26,35,31,25,98,97,96,30.39,30.34,5,1,7,0.01
2013-1-20,37,34,31,36,33,30,98,98,97,30.39,30.27,7,3,9,0.00
2013-1-21,40,31,27,39,30,26,98,97,93,30.27,30.12,5,1,6,0.01
2013-1-22,36,31,27,34,30,26,98,95,86,30.13,29.90,6,1,9,0.00
2013-1-23,43,38,34,42,36,31,98,93,81,30.07,29.79,19,7,22,0.42
2013-1-24,43,40,38,39,38,37,97,92,84,30.17,29.99,11,4,17,0.28
2013-1-25,48,42,36,44,40,35,98,94,80,30.03,29.87,15,4,21,0.04
2013-1-26,38,37,36,37,36,35,98,95,89,29.99,29.84,11,3,15,0.38
2013-1-27,40,39,38,39,38,37,98,96,94,30.00,29.93,18,8,18,0.19
2013-1-28,40,39,37,38,37,36,98,94,87,30.02,29.94,14,6,18,0.10
2013-1-29,43,41,39,43,40,38,98,94,87,30.27,30.02,14,4,17,0.11
2013-1-30,45,43,42,45,43,42,99,98,96,30.34,30.27,17,5,18,0.02
2013-1-31,46,44,43,45,44,43,99,97,95,30.34,30.25,23,10,26,0.12
2013-2-1,48,44,40,44,42,39,99,95,83,30.41,30.30,7,2,9,0.00
2013-2-2,44,38,36,41,38,35,99,96,90,30.39,30.22,8,2,10,0.00
2013-2-3,43,40,38,43,40,38,99,99,97,30.28,30.15,11,5,14,0.11
2013-2-4,47,44,42,43,42,40,98,92,82,30.15,29.82,19,8,26,0.00
2013-2-5,47,45,42,42,42,39,95,87,80,29.86,29.74,26,14,31,0.10
2013-2-6,46,43,42,42,40,39,94,88,75,29.98,29.75,22,10,31,0.06
2013-2-7,46,42,35,40,37,34,95,84,69,30.17,29.74,20,6,26,0.26
2013-2-8,42,38,33,39,35,32,97,91,81,30.28,30.18,4,0,6,0.00
2013-2-9,42,39,37,39,37,35,97,93,82,30.33,30.24,3,1,4,0.03
2013-2-10,44,38,32,38,35,31,95,87,70,30.37,30.30,5,2,8,0.00
2013-2-11,42,40,38,41,39,37,97,95,91,30.32,30.29,14,7,18,0.03
2013-2-12,47,44,41,44,42,40,96,92,81,30.36,30.19,20,11,25,0.01
2013-2-13,47,44,41,42,40,38,90,84,72,30.45,30.23,11,6,20,0.00
2013-2-14,45,42,40,43,41,39,98,95,89,30.56,30.44,8,2,12,0.18
2013-2-15,52,43,40,43,41,39,98,91,70,30.56,30.14,8,3,11,0.01
2013-2-16,49,44,41,45,40,39,98,87,70,30.14,30.05,15,7,22,0.11
2013-2-17,44,41,38,39,36,33,91,83,73,30.21,30.09,8,2,12,0.01
2013-2-18,43,38,36,38,35,34,94,89,74,30.09,29.76,9,2,13,0.00
2013-2-19,45,40,35,39,35,30,95,83,68,29.97,29.75,13,5,16,0.00
2013-2-20,39,36,33,37,34,31,97,95,90,30.01,29.97,6,2,10,0.14
2013-2-21,41,39,33,40,38,33,98,94,91,30.00,29.95,27,12,27,0.37
2013-2-22,46,41,38,41,38,34,97,88,66,29.99,29.59,33,15,41,0.27
2013-2-23,46,42,37,38,36,34,94,81,64,30.30,29.80,15,5,17,0.00
2013-2-24,45,42,38,38,37,36,95,82,72,30.32,29.83,32,16,45,0.02
2013-2-25,46,43,40,40,38,34,92,82,73,30.24,29.79,32,12,41,0.05
2013-2-26,44,41,38,37,35,33,92,79,64,30.30,30.12,17,10,24,0.00
2013-2-27,46,41,38,40,38,36,95,88,72,30.29,30.16,14,6,20,0.09
2013-2-28,48,40,39,48,39,36,98,95,89,30.23,30.17,12,4,19,0.98
2013-3-1,54,51,48,49,48,47,97,92,84,30.25,30.20,28,16,33,0.51
2013-3-2,52,47,39,48,44,37,96,91,84,30.21,29.97,21,9,29,0.28
2013-3-3,46,41,38,37,36,33,93,83,63,30.29,30.13,12,4,19,0.00
2013-3-4,51,44,32,36,30,25,96,62,37,30.26,29.96,11,5,16,0.01
2013-3-5,46,43,40,38,30,26,91,63,51,29.97,29.75,19,7,27,0.00
2013-3-6,42,40,39,40,38,36,96,91,85,29.86,29.61,11,4,13,0.21
2013-3-7,45,41,38,42,39,37,97,94,84,30.09,29.86,8,3,13,0.12
2013-3-8,47,42,36,42,38,36,98,89,71,30.22,30.07,9,2,13,0.00
2013-3-9,52,43,33,42,38,32,98,84,58,30.47,30.22,7,2,10,0.00
2013-3-10,44,42,40,41,40,38,96,90,85,30.46,30.39,15,5,16,0.00
2013-3-11,49,43,38,41,39,37,96,86,64,30.42,30.12,12,3,15,0.16
2013-3-12,50,46,39,49,45,38,98,95,93,30.11,29.93,30,13,36,0.30
2013-3-13,52,50,49,49,48,47,96,92,88,30.13,30.01,33,15,33,0.02
2013-3-14,53,50,47,49,47,45,98,92,80,30.04,29.98,17,6,25,0.19
2013-3-15,55,51,46,49,47,44,97,89,78,30.17,30.08,20,6,20,0.15
2013-3-16,47,44,39,46,41,35,97,89,66,30.08,29.80,16,8,23,0.35
2013-3-17,48,42,39,35,33,28,82,70,48,30.12,29.90,14,7,19,0.00
2013-3-18,47,42,37,37,34,30,94,76,56,30.22,30.02,20,7,30,0.02
2013-3-19,51,40,34,39,32,28,94,74,50,30.22,29.54,22,6,30,0.15
2013-3-20,51,46,40,47,40,30,95,79,64,29.91,29.27,31,14,39,0.05
2013-3-21,45,40,36,35,32,26,89,75,46,30.16,29.91,13,7,18,0.00
2013-3-22,43,39,34,35,31,27,94,74,55,30.36,30.16,13,5,21,0.09
2013-3-23,47,39,32,33,28,23,91,69,46,30.39,30.30,6,2,10,0.00
2013-3-24,53,42,34,34,30,27,84,63,38,30.30,30.12,13,3,20,0.00
2013-3-25,56,46,39,38,33,29,78,62,38,30.13,29.94,12,4,14,0.00
2013-3-26,57,47,38,42,36,30,86,67,45,30.01,29.95,7,2,11,0.00
2013-3-27,55,48,38,43,40,37,97,75,56,29.98,29.93,9,2,11,0.00
2013-3-28,59,51,43,46,42,39,90,73,55,30.12,29.98,6,2,10,0.00
2013-3-29,59,51,44,48,45,41,94,78,60,30.24,30.12,8,3,10,0.00
2013-3-30,59,51,43,48,44,40,91,77,59,30.26,30.07,9,3,12,0.00
2013-3-31,63,55,46,47,42,37,82,63,40,30.07,29.89,9,3,12,0.00
2013-4-1,55,51,47,50,45,40,92,82,68,30.10,29.93,20,7,23,0.00
2013-4-2,54,50,47,46,44,43,92,82,68,30.17,30.10,13,5,19,0.00
2013-4-3,57,51,46,49,46,43,95,83,69,30.17,29.96,8,2,10,0.00
2013-4-4,54,51,48,51,46,43,97,86,76,29.95,29.56,24,5,37,0.30
2013-4-5,56,51,48,51,48,43,96,87,77,29.80,29.61,25,13,34,0.35
2013-4-6,53,48,42,46,42,38,93,78,59,29.85,29.61,27,10,40,0.06
2013-4-7,48,43,40,44,41,39,97,91,76,29.80,29.54,14,6,19,0.29
2013-4-8,53,48,43,46,44,42,96,86,68,30.23,30.01,10,5,13,0.00
2013-4-9,50,47,45,46,44,42,96,88,75,30.32,30.11,11,5,18,0.01
2013-4-10,53,50,47,47,44,40,95,82,68,30.17,29.84,33,12,44,0.13
2013-4-11,53,47,42,41,37,32,84,71,47,30.26,30.15,12,5,17,0.01
2013-4-12,43,41,38,40,38,35,93,88,80,30.15,29.61,26,8,28,0.31
2013-4-13,48,41,33,41,36,31,95,84,71,29.95,29.66,22,6,24,0.11
2013-4-14,49,43,38,40,38,36,96,84,65,29.98,29.90,10,3,11,0.32
2013-4-15,56,46,38,42,39,32,96,79,51,30.16,29.92,11,3,21,0.15
2013-4-16,57,48,38,39,32,19,87,59,27,30.36,30.16,15,4,20,0.00
2013-4-17,55,48,40,42,36,25,78,65,42,30.41,30.36,16,6,22,0.00
2013-4-18,48,46,42,46,44,41,95,91,83,30.41,30.15,18,10,23,0.12
2013-4-19,53,49,47,49,47,46,97,94,84,30.15,30.03,15,8,20,0.09
2013-4-20,53,49,46,47,44,42,94,83,74,30.21,30.11,17,7,22,0.05
2013-4-21,53,46,40,42,40,30,95,81,44,30.37,30.19,9,4,15,0.19
2013-4-22,56,47,36,38,32,20,90,60,25,30.54,30.38,13,4,17,0.00
2013-4-23,57,49,39,44,37,29,84,64,50,30.38,30.25,11,4,16,0.00
2013-4-24,63,53,42,44,37,30,81,57,30,30.32,30.03,9,3,12,0.00
2013-4-25,65,54,43,49,43,39,86,69,45,30.09,30.02,11,4,13,0.00
2013-4-26,57,54,47,50,44,38,92,72,50,30.22,30.15,15,7,23,0.00
2013-4-27,53,50,46,48,45,43,93,84,70,30.16,30.09,20,9,25,0.22
2013-4-28,53,48,43,43,41,38,93,77,62,30.17,29.88,19,7,29,0.04
2013-4-29,51,46,42,43,36,29,93,69,44,30.10,29.86,28,9,32,0.01
2013-4-30,52,46,42,38,34,27,81,65,40,30.41,30.10,10,4,18,0.00
2013-5-1,60,49,36,40,34,27,88,60,33,30.58,30.42,7,2,11,0.00
2013-5-2,59,52,43,47,40,32,79,65,49,30.54,30.37,17,3,17,0.00
2013-5-3,66,58,46,51,46,43,87,65,49,30.40,30.23,14,4,17,0.00
2013-5-4,70,61,50,51,46,41,83,59,39,30.25,29.99,14,4,18,0.00
2013-5-5,76,66,58,52,46,40,65,49,36,29.99,29.76,12,4,16,0.00
2013-5-6,77,67,57,56,49,45,71,53,37,29.84,29.73,8,2,10,0.00
2013-5-7,65,57,50,55,50,47,89,77,62,29.94,29.77,18,8,21,0.00
2013-5-8,61,55,49,54,50,48,95,86,74,30.11,29.95,16,7,17,0.00
2013-5-9,66,56,48,56,50,47,97,83,63,30.20,30.10,12,6,15,0.00
2013-5-10,71,60,49,58,52,46,92,77,56,30.18,30.10,9,3,12,0.00
2013-5-11,74,60,53,56,51,45,92,72,48,30.14,29.96,10,3,15,0.08
2013-5-12,63,58,54,59,56,53,97,92,78,30.04,29.96,18,5,23,0.47
2013-5-13,62,54,48,55,50,42,97,87,72,30.14,29.87,26,8,31,0.18
2013-5-14,61,53,47,47,42,37,89,69,43,30.20,30.11,13,5,18,0.00
2013-5-15,65,54,48,50,46,41,94,75,52,30.11,29.98,8,2,15,0.05
2013-5-16,62,56,50,54,51,49,97,85,65,30.00,29.86,7,2,12,0.09
2013-5-17,56,54,52,52,51,49,94,89,82,30.02,29.90,18,8,22,0.04
2013-5-18,59,53,50,51,49,45,95,85,62,30.24,30.02,11,4,14,0.06
2013-5-19,62,55,51,51,49,47,94,81,60,30.38,30.25,12,3,13,0.00
2013-5-20,62,54,48,52,49,46,94,81,65,30.33,29.89,8,4,16,0.00
2013-5-21,52,49,46,47,46,44,96,91,82,29.89,29.77,10,2,15,0.44
2013-5-22,56,50,45,48,45,42,95,83,62,29.93,29.82,18,3,23,0.24
2013-5-23,59,50,43,48,45,42,97,85,60,29.99,29.91,14,4,18,0.17
2013-5-24,60,52,43,49,45,42,97,79,54,30.01,29.96,13,3,18,0.00
2013-5-25,63,55,50,50,48,45,93,79,56,30.01,29.96,13,5,18,0.01
2013-5-26,58,52,49,54,50,48,96,92,84,29.98,29.93,4,1,8,0.41
2013-5-27,59,54,49,55,52,48,97,93,79,29.92,29.69,11,1,15,0.35
2013-5-28,58,55,52,53,51,49,96,86,75,29.84,29.72,18,8,26,0.13
2013-5-29,56,52,50,52,50,47,96,91,82,29.92,29.66,11,4,15,0.13
2013-5-30,59,52,48,51,48,46,96,85,68,30.21,29.92,15,6,19,0.00
2013-5-31,63,56,49,50,47,42,97,76,49,30.33,30.21,11,4,12,0.00
2013-6-1,65,56,49,53,49,45,94,77,59,30.23,30.06,9,2,12,0.01
2013-6-2,64,57,52,53,50,47,93,79,55,30.07,30.02,16,5,18,0.00
2013-6-3,66,59,50,54,50,47,92,75,56,30.10,30.04,9,4,11,0.00
2013-6-4,74,63,51,58,52,49,95,71,45,30.12,30.00,7,2,10,0.00
2013-6-5,69,61,54,58,54,48,92,77,59,30.07,30.00,13,4,15,0.00
2013-6-6,72,62,53,60,53,43,95,72,48,30.03,29.95,13,4,18,0.00
2013-6-7,65,57,53,55,49,42,87,73,58,30.10,29.96,18,12,27,0.05
2013-6-8,64,56,50,51,49,47,90,79,57,30.15,30.08,19,8,22,0.00
2013-6-9,64,56,50,53,49,44,94,78,52,30.08,30.00,14,6,20,0.02
2013-6-10,65,56,47,52,48,44,94,74,49,30.01,29.85,11,4,13,0.00
2013-6-11,62,55,52,49,47,44,87,74,55,30.06,29.88,14,7,19,0.00
2013-6-12,63,56,50,53,50,46,94,81,63,30.12,30.06,11,3,13,0.11
2013-6-13,65,57,49,53,49,45,95,78,51,30.16,30.11,13,4,16,0.00
2013-6-14,63,56,51,53,50,48,91,83,66,30.20,30.07,16,7,20,0.01
2013-6-15,68,60,49,58,52,47,94,78,60,30.06,29.91,11,3,12,0.00
2013-6-16,70,62,56,57,54,51,87,75,57,30.04,29.96,23,8,25,0.00
2013-6-17,72,65,57,55,53,51,86,65,50,30.03,29.87,10,5,16,0.03
2013-6-18,70,61,54,55,52,46,96,75,44,29.94,29.87,15,4,26,0.00
2013-6-19,64,58,53,54,52,50,94,81,61,29.94,29.86,14,6,17,0.00
2013-6-20,56,53,52,53,52,50,96,94,80,30.07,29.88,13,7,17,0.66
2013-6-21,65,57,52,55,52,50,96,84,69,30.14,30.06,11,5,15,0.00
2013-6-22,72,62,53,59,54,51,95,76,58,30.10,29.85,6,3,11,0.00
2013-6-23,67,62,57,63,58,53,95,85,73,29.85,29.58,7,1,11,0.13
2013-6-24,63,59,57,60,57,55,97,91,79,29.67,29.53,13,4,18,0.28
2013-6-25,69,61,56,58,56,54,96,84,63,29.78,29.65,17,4,24,0.08
2013-6-26,62,61,60,56,56,55,85,84,83,30.05,30.02,6,4,7,0.05
2013-6-27,68,62,59,63,60,56,96,90,82,30.20,30.03,6,1,9,0.09
2013-6-28,77,67,59,68,62,58,97,83,65,30.20,30.04,8,2,13,0.00
2013-6-29,81,70,59,67,63,58,97,80,58,30.07,29.97,7,2,12,0.00
2013-6-30,84,73,62,69,64,58,91,75,56,29.99,29.82,7,2,11,0.00
2013-7-1,80,71,62,67,62,56,86,73,59,29.96,29.87,20,7,26,0.00
2013-7-2,76,65,57,63,57,50,89,76,60,30.07,29.97,19,9,23,0.00
2013-7-3,73,64,54,58,52,46,91,68,45,30.12,30.01,12,6,19,0.00
2013-7-4,68,60,54,58,54,50,92,79,61,30.07,30.00,17,9,22,0.00
2013-7-5,69,62,54,59,55,51,94,79,64,30.00,29.92,11,4,14,0.00
2013-7-6,74,64,54,61,56,52,93,76,53,29.96,29.84,12,3,13,0.00
2013-7-7,72,65,57,61,56,52,87,76,61,29.91,29.86,9,4,12,0.00
2013-7-8,73,65,56,60,58,54,94,77,60,30.06,30.00,11,4,14,0.00
2013-7-9,80,68,56,64,58,52,95,72,45,30.09,29.95,14,4,20,0.00
2013-7-10,68,60,54,58,52,47,92,77,56,30.01,29.89,24,12,29,0.00
2013-7-11,66,58,52,52,50,47,89,76,54,30.05,29.92,18,8,21,0.00
2013-7-12,67,58,50,55,50,47,92,76,51,30.06,29.99,11,5,13,0.00
2013-7-13,71,62,52,57,51,47,91,69,46,30.19,30.07,13,6,16,0.00
2013-7-14,75,65,54,57,52,43,91,67,33,30.11,29.99,12,4,14,0.00
2013-7-15,76,66,54,58,52,46,92,62,37,30.05,29.89,19,5,21,0.00
2013-7-16,83,73,65,60,52,45,63,48,29,29.90,29.80,13,4,18,0.00
2013-7-17,71,66,59,60,57,52,87,72,55,30.15,29.82,27,10,30,0.00
2013-7-18,74,65,59,61,58,55,88,78,61,30.21,30.09,11,5,14,0.00
2013-7-19,76,64,56,63,58,54,96,83,62,30.14,30.01,12,6,16,0.00
2013-7-20,70,60,54,60,56,53,97,87,69,30.05,29.93,18,10,22,0.00
2013-7-21,72,62,54,62,57,53,97,84,65,29.95,29.88,12,6,19,0.00
2013-7-22,74,63,54,62,57,53,97,83,58,30.02,29.90,13,5,16,0.00
2013-7-23,79,66,55,64,57,51,97,75,40,30.05,29.95,9,4,13,0.00
2013-7-24,78,66,55,62,56,52,89,71,49,30.03,29.97,12,5,15,0.00
2013-7-25,78,68,52,62,57,52,97,70,47,30.08,30.04,9,4,11,0.00
2013-7-26,74,65,55,61,56,52,91,73,53,30.12,30.05,9,4,12,0.00
2013-7-27,72,64,55,57,54,52,90,71,50,30.12,29.97,11,4,18,0.00
2013-7-28,72,63,55,59,56,52,91,78,59,29.98,29.90,14,5,14,0.00
2013-7-29,73,63,55,60,56,53,93,79,60,29.98,29.91,13,6,14,0.00
2013-7-30,72,63,56,61,57,54,93,81,62,30.10,29.97,12,6,16,0.00
2013-7-31,71,62,55,62,57,54,97,85,69,30.09,29.97,13,5,20,0.01
2013-8-1,65,60,54,60,57,53,97,89,76,30.02,29.97,22,9,25,0.01
2013-8-2,62,58,57,59,56,55,96,92,85,30.12,30.00,16,7,19,0.10
2013-8-3,72,64,58,61,58,56,96,83,65,30.12,30.04,9,2,10,0.00
2013-8-4,76,66,58,64,60,56,97,81,63,30.05,29.93,7,2,11,0.00
2013-8-5,78,70,59,64,59,55,91,70,49,29.99,29.90,7,4,11,0.00
2013-8-6,80,65,52,61,56,51,98,76,45,29.98,29.89,13,4,13,0.00
2013-8-7,78,66,53,60,56,52,97,74,45,29.98,29.91,11,6,15,0.00
2013-8-8,77,68,59,62,59,52,96,74,56,30.00,29.90,14,7,20,0.00
2013-8-9,80,66,54,63,58,52,98,78,55,29.93,29.79,11,5,17,0.00
2013-8-10,74,65,59,62,58,55,91,79,65,29.96,29.82,20,7,25,0.00
2013-8-11,69,62,56,59,56,54,96,83,65,30.04,29.96,18,8,20,0.06
2013-8-12,74,64,57,61,57,55,94,80,59,30.05,29.98,14,5,16,0.00
2013-8-13,76,65,56,60,57,54,94,75,54,30.08,29.91,11,4,15,0.00
2013-8-14,78,67,58,65,60,55,96,81,57,29.92,29.88,5,1,10,0.13
2013-8-15,69,64,61,65,63,60,97,94,86,29.96,29.89,8,2,11,0.01
2013-8-16,78,68,60,65,62,59,98,84,59,29.99,29.93,8,2,11,0.00
2013-8-17,73,66,62,62,60,58,91,81,66,30.04,29.95,16,7,22,0.00
2013-8-18,71,64,59,60,57,53,88,79,65,30.09,30.03,12,6,17,0.00
2013-8-19,72,63,57,60,56,51,88,78,65,30.10,30.02,12,6,16,0.00
2013-8-20,71,62,54,59,54,46,96,75,43,30.16,30.07,12,3,14,0.00
2013-8-21,76,66,55,59,54,47,85,67,47,30.09,29.92,12,3,14,0.00
2013-8-22,85,69,56,62,57,53,93,68,41,29.93,29.76,12,3,16,0.00
2013-8-23,71,64,57,59,57,54,94,79,62,29.85,29.77,25,10,29,0.03
2013-8-24,70,63,59,60,58,53,97,84,61,29.89,29.84,13,4,13,0.02
2013-8-25,73,63,54,58,55,52,94,74,53,29.92,29.83,8,3,11,0.00
2013-8-26,73,65,59,60,56,52,89,74,60,29.89,29.80,19,7,26,0.00
2013-8-27,76,66,59,62,60,57,94,80,61,29.91,29.77,18,4,24,0.04
2013-8-28,77,66,59,66,62,58,97,88,68,29.87,29.80,6,1,7,0.12
2013-8-29,71,66,62,67,63,61,98,91,80,29.92,29.83,23,5,31,0.24
2013-8-30,74,66,58,62,58,54,95,78,51,30.13,29.93,13,4,21,0.00
2013-8-31,75,65,56,63,58,55,97,80,58,30.07,29.82,10,3,14,0.00
2013-9-1,76,67,58,63,59,55,95,77,58,29.85,29.77,11,3,12,0.00
2013-9-2,75,66,60,63,60,56,93,80,61,29.91,29.83,8,2,11,0.01
2013-9-3,70,63,59,65,60,57,98,90,78,30.01,29.91,7,2,14,0.31
2013-9-4,69,63,59,64,61,58,99,92,78,30.03,29.99,7,2,13,0.01
2013-9-5,64,61,57,63,60,57,99,97,93,30.03,29.89,4,1,10,0.38
2013-9-6,66,62,59,63,61,59,99,96,89,30.07,29.88,16,3,22,0.14
2013-9-7,70,65,60,64,62,59,98,89,74,30.07,30.00,11,4,15,0.01
2013-9-8,71,64,59,64,61,58,98,89,75,30.08,30.00,10,2,12,0.00
2013-9-9,72,63,56,64,60,55,99,89,71,30.05,29.96,9,3,12,0.00
2013-9-10,75,66,57,65,61,55,98,84,65,29.99,29.88,10,2,13,0.00
2013-9-11,85,74,63,65,60,54,92,63,41,29.94,29.86,10,2,11,0.00
2013-9-12,82,69,60,65,60,57,94,76,51,29.95,29.86,18,4,18,0.00
2013-9-13,67,60,57,62,59,56,99,94,82,29.94,29.83,17,8,23,0.00
2013-9-14,68,61,56,63,60,55,99,96,86,29.87,29.73,6,1,9,0.00
2013-9-15,64,58,54,63,58,54,99,98,91,29.77,29.68,21,4,23,0.24
2013-9-16,63,60,56,61,58,53,99,95,85,29.88,29.75,19,9,20,0.07
2013-9-17,63,58,55,57,54,52,96,89,70,29.88,29.82,12,5,17,0.00
2013-9-18,66,58,53,56,53,51,97,84,62,30.05,29.88,11,5,15,0.00
2013-9-19,78,63,53,55,51,48,93,69,39,30.04,29.73,7,2,12,0.00
2013-9-20,72,61,55,56,52,48,94,73,52,29.73,29.55,9,2,12,0.03
2013-9-21,66,60,55,57,55,53,96,85,67,29.68,29.61,11,5,14,0.02
2013-9-22,59,57,55,55,54,51,97,90,76,29.65,29.48,30,12,42,0.13
2013-9-23,58,55,51,54,52,49,97,89,76,29.92,29.66,13,7,16,0.23
2013-9-24,61,53,48,51,49,47,96,86,66,29.92,29.82,12,2,14,0.01
2013-9-25,60,53,48,52,49,47,98,87,71,29.99,29.84,16,3,19,0.00
2013-9-26,61,53,45,52,48,43,96,83,61,30.09,30.00,9,2,13,0.00
2013-9-27,55,53,51,52,50,48,98,92,81,30.07,29.79,19,7,20,0.50
2013-9-28,59,54,50,57,52,47,99,92,77,29.79,29.25,22,10,31,0.56
2013-9-29,56,53,52,52,50,44,97,89,73,29.46,29.09,24,13,31,0.17
2013-9-30,54,51,49,52,48,43,94,88,71,29.84,29.29,25,12,29,0.07
2013-10-1,54,50,48,49,47,46,98,89,76,30.06,29.84,21,7,24,0.22
2013-10-2,50,48,46,50,47,45,99,98,94,30.17,30.04,10,1,13,1.34
2013-10-3,55,48,40,51,46,40,99,93,79,30.44,30.18,4,1,8,0.01
2013-10-4,59,51,42,51,47,42,98,88,69,30.47,30.34,3,0,7,0.01
2013-10-5,67,58,52,53,51,49,91,79,55,30.35,30.12,5,1,11,0.00
2013-10-6,71,60,50,57,50,43,96,71,40,30.11,29.78,20,5,25,0.00
2013-10-7,59,55,52,53,50,48,97,86,71,29.92,29.80,20,10,24,0.11
2013-10-8,57,51,46,49,46,43,95,84,66,30.08,29.92,14,4,20,0.18
2013-10-9,56,49,43,47,44,41,95,82,64,30.12,29.93,7,2,10,0.01
2013-10-10,55,50,46,50,47,43,93,87,80,30.05,29.91,7,3,10,0.00
2013-10-11,54,48,40,49,45,39,98,90,78,30.13,30.05,3,0,4,0.00
2013-10-12,55,50,46,50,47,44,98,90,76,30.20,30.06,11,2,15,0.02
2013-10-13,57,48,41,48,44,40,99,87,68,30.35,30.20,8,1,10,0.01
2013-10-14,57,49,42,51,45,40,96,88,76,30.42,30.35,7,1,10,0.00
2013-10-15,57,49,42,52,47,42,98,93,79,30.38,30.17,10,1,11,0.01
2013-10-16,57,49,43,53,48,43,99,95,81,30.19,30.13,8,1,10,0.01
2013-10-17,55,49,45,51,48,45,99,97,86,30.27,30.19,9,1,11,0.00
2013-10-18,53,45,39,51,45,39,99,98,91,30.24,30.14,5,1,7,0.02
2013-10-19,48,45,41,48,45,41,100,99,99,30.19,30.14,6,1,8,0.01
2013-10-20,49,47,46,49,47,46,100,99,98,30.20,30.14,5,1,5,0.00
2013-10-21,51,47,44,50,47,44,100,99,96,30.17,30.09,5,1,6,0.01
2013-10-22,55,47,41,54,47,41,100,99,87,30.12,30.02,4,1,6,0.01
2013-10-23,61,50,40,56,48,40,100,92,77,30.04,29.96,4,1,6,0.01
2013-10-24,59,49,42,53,47,41,100,92,74,30.09,30.00,10,2,14,0.01
2013-10-25,52,48,46,51,48,46,100,98,92,30.32,30.09,11,2,11,0.01
2013-10-26,56,50,47,49,48,46,98,92,78,30.33,30.16,7,1,11,0.00
2013-10-27,60,52,47,51,46,36,99,82,48,30.16,29.93,11,3,25,0.05
2013-10-28,58,53,50,36,29,26,52,40,32,30.02,29.90,24,10,36,0.00
2013-10-29,54,48,42,40,34,27,79,59,43,30.01,29.93,12,3,18,0.00
2013-10-30,53,46,40,47,41,35,91,81,71,30.10,30.00,19,4,25,0.01
2013-10-31,51,49,47,50,48,45,98,97,86,30.23,30.04,21,8,26,0.08
2013-11-1,54,51,50,52,50,49,98,95,89,30.23,29.78,14,5,20,0.04
2013-11-2,50,46,40,49,44,40,98,96,92,29.83,29.37,31,5,35,1.42
2013-11-3,47,41,36,43,39,35,99,92,74,30.10,29.83,6,1,9,0.01
2013-11-4,44,39,33,39,36,32,97,88,78,30.18,30.07,4,1,8,0.01
2013-11-5,43,41,39,42,40,38,98,97,88,30.24,30.02,7,2,11,0.17
2013-11-6,48,45,42,46,43,41,99,94,86,30.31,30.05,8,2,15,0.00
2013-11-7,52,48,44,51,46,44,99,92,83,29.90,29.65,25,9,34,0.39
2013-11-8,52,48,45,46,44,42,98,88,68,30.14,29.91,10,4,15,0.10
2013-11-9,48,45,41,44,43,40,98,92,82,30.14,30.08,6,1,10,0.00
2013-11-10,50,46,43,45,43,39,96,88,66,30.17,30.11,15,3,27,0.01
2013-11-11,54,50,48,41,39,37,70,66,60,30.16,29.99,19,8,28,0.00
2013-11-12,55,52,47,52,48,41,96,86,69,30.29,29.99,23,9,28,0.07
2013-11-13,54,51,48,51,48,46,96,91,81,30.38,30.28,11,6,16,0.03
2013-11-14,49,47,44,47,44,40,98,92,83,30.27,30.02,12,4,15,0.01
2013-11-15,46,44,42,45,42,39,98,93,83,30.02,29.24,31,11,35,0.08
2013-11-16,46,43,40,41,39,37,95,86,74,29.69,29.29,23,4,32,0.08
2013-11-17,49,45,40,45,42,35,95,89,81,29.85,29.70,20,10,25,0.06
2013-11-18,46,44,42,45,44,42,99,98,93,29.86,29.51,10,2,15,1.35
2013-11-19,44,41,36,43,32,17,99,72,38,29.99,29.54,21,7,29,0.11
2013-11-20,40,33,29,25,22,20,79,65,54,30.52,30.26,8,3,14,0.00
2013-11-21,40,32,27,27,24,22,81,74,60,30.67,30.53,8,2,12,0.00
2013-11-22,42,35,30,32,28,26,84,76,61,30.67,30.46,6,2,10,0.00
2013-11-23,47,39,34,38,34,30,91,81,67,30.46,30.20,8,2,12,0.00
2013-11-24,49,41,36,41,37,34,92,84,72,30.24,30.18,6,1,9,0.00
2013-11-25,50,43,40,41,38,35,89,81,72,30.30,30.25,5,2,10,0.00
2013-11-26,48,42,36,41,37,34,93,83,70,30.25,30.10,7,2,9,0.00
2013-11-27,53,46,42,42,38,35,82,74,57,30.10,29.96,8,3,15,0.00
2013-11-28,51,44,39,43,39,35,87,80,72,30.11,30.02,5,1,8,0.01
2013-11-29,47,46,44,46,44,42,98,93,90,30.29,30.18,14,7,22,0.08
2013-11-30,49,46,44,47,45,44,98,97,93,30.29,30.02,21,7,22,0.38
2013-12-1,52,48,42,49,46,35,98,89,74,30.02,29.67,19,11,29,0.13
2013-12-2,42,36,31,37,31,17,96,82,54,30.08,29.73,18,6,30,0.13
2013-12-3,36,33,30,17,15,13,54,49,45,30.34,30.25,21,9,28,0.00
2013-12-4,34,30,26,13,11,9,53,45,35,30.37,30.32,16,7,23,0.00
2013-12-5,31,27,24,15,12,5,63,54,43,30.33,30.21,22,5,31,0.00
2013-12-6,25,23,20,5,1,-2,44,39,35,30.33,30.24,26,14,38,0.00
2013-12-7,26,21,17,5,0,-3,59,42,32,30.42,30.32,17,5,26,0.00
2013-12-8,31,23,16,15,11,5,74,62,48,30.55,30.41,5,1,9,0.00
2013-12-9,28,26,22,26,22,15,95,85,74,30.56,30.47,6,1,7,0.00
2013-12-10,32,30,28,31,29,26,97,95,90,30.48,30.42,7,2,10,0.00
2013-12-11,38,34,32,33,31,30,92,88,81,30.42,30.15,7,2,11,0.00
2013-12-12,43,35,32,41,33,30,98,92,87,30.14,29.99,14,2,20,0.31
2013-12-13,44,41,37,44,41,37,99,99,98,30.41,30.11,12,4,15,0.15
2013-12-14,48,45,41,45,44,40,99,95,90,30.41,30.27,19,7,27,0.00
2013-12-15,48,46,44,47,46,41,98,96,88,30.39,30.26,21,12,25,0.00
2013-12-16,48,43,38,44,41,37,98,93,83,30.47,30.25,11,3,15,0.00
2013-12-17,42,39,34,41,38,34,99,97,95,30.25,30.05,21,7,25,0.01
2013-12-18,44,40,34,42,34,20,96,81,52,30.22,30.02,17,6,21,0.03
2013-12-19,36,32,30,29,23,20,94,68,54,30.35,30.19,11,2,17,0.00
2013-12-20,33,31,30,32,31,29,99,97,95,30.18,29.71,9,1,13,0.00
2013-12-21,35,34,33,35,34,32,99,99,98,30.16,29.87,3,1,5,0.32
2013-12-22,38,36,34,37,36,34,99,99,99,30.28,30.15,4,2,10,0.95
2013-12-23,50,46,38,48,43,38,100,90,72,30.46,30.05,22,9,31,0.04
2013-12-24,45,42,38,42,39,37,97,92,77,30.58,30.47,9,3,12,0.00
2013-12-25,39,36,33,38,35,33,98,95,88,30.53,30.39,4,0,5,0.01
2013-12-26,45,41,38,43,40,37,99,96,87,30.39,30.19,5,1,8,0.13
2013-12-27,48,42,35,46,41,35,99,96,88,30.32,30.04,23,5,28,0.20
2013-12-28,45,42,39,43,41,38,99,96,88,30.50,30.32,6,1,15,0.00
2013-12-29,42,40,39,41,40,38,99,97,93,30.46,30.30,13,4,17,0.02
2013-12-30,45,42,40,43,41,39,97,95,89,30.30,30.08,13,3,18,0.00
2013-12-31,44,43,43,44,43,42,100,98,95,30.37,30.15,14,6,20,0.03
2014-1-1,45,42,40,44,42,40,100,99,93,30.40,30.24,6,2,8,0.02
2014-1-2,46,43,42,45,42,39,100,97,84,30.23,29.82,25,6,28,0.31